»·PEaware :: DCM2499 KSBA-KIFP

DCM2499 :: KSBA-KIFP

FLIGHT INFORMATION

Flight Status: Arrived
Operator: Unknown
More flights by this operator :: More flights under this callsign
Pilot: Alec D. (17934)
Aircraft: GATES LEARJET LEARJET 24
(LJ24)
More flights by this aircraft type
Origin: KSBA Santa Barbara Mun
United States
Destination: KIFP Laughlin/Bullhead Intl
United States
More flights between these airports :: More routes between these airports
Route: +KWANG5 HENER FIM PMD J6 EED
File this flight plan on PilotEdge
Remarks:
Altitude:
(Current/Filed)
33,000ft
Speed:
(Current/Filed)
430kts
Departed: 03-Sep-18 03:36 PM
Arrived: 03-Sep-18 04:24 PM
Distance/Time
Traveled:
264nm/0:48
Distance/Time
To Go:
Arrived

Flight Plot

Page will automatically refresh every two minutes.

Flight plan parsing failed; only flown route is shown


Map Options




Map Legend


Flown Route
Filed Route
Departure Airport
Arrival Airport
Navaid (VOR, NDB)
Fix

Horizontal Profiles

Position Reports

Time Latitude Longitude Heading Altitude Ground
Speed
03-Sep-18 14:59 34.424495 -119.836026 72 13ft 0kts
03-Sep-18 15:00 34.424495 -119.836026 72 13ft 0kts
03-Sep-18 15:01 34.424495 -119.836026 72 13ft 0kts
03-Sep-18 15:02 34.424495 -119.836026 72 13ft 0kts
03-Sep-18 15:03 34.424495 -119.836026 72 13ft 0kts
03-Sep-18 15:04 34.424495 -119.836026 72 13ft 0kts
03-Sep-18 15:05 34.424495 -119.836026 72 13ft 0kts
03-Sep-18 15:06 34.424495 -119.836026 72 13ft 0kts
03-Sep-18 15:07 34.424495 -119.836026 72 13ft 0kts
03-Sep-18 15:08 34.424495 -119.836026 72 13ft 0kts
03-Sep-18 15:09 34.424495 -119.836026 72 13ft 0kts
03-Sep-18 15:10 34.424495 -119.836026 72 13ft 0kts
03-Sep-18 15:11 34.424495 -119.836026 72 13ft 0kts
03-Sep-18 15:12 34.424495 -119.836026 72 13ft 0kts
03-Sep-18 15:13 34.424495 -119.836026 72 13ft 0kts
03-Sep-18 15:15 34.424495 -119.836026 72 13ft 0kts
03-Sep-18 15:16 34.424495 -119.836026 72 13ft 0kts
03-Sep-18 15:17 34.424495 -119.836026 72 13ft 0kts
03-Sep-18 15:18 34.424495 -119.836026 72 13ft 0kts
03-Sep-18 15:19 34.424495 -119.836026 72 13ft 0kts
03-Sep-18 15:20 34.424495 -119.836026 72 13ft 0kts
03-Sep-18 15:21 34.424495 -119.836026 72 13ft 0kts
03-Sep-18 15:22 34.424629 -119.836080 219 13ft 0kts
03-Sep-18 15:23 34.424627 -119.836082 218 13ft 0kts
03-Sep-18 15:24 34.424481 -119.836183 230 13ft 0kts
03-Sep-18 15:25 34.424480 -119.836185 230 13ft 0kts
03-Sep-18 15:26 34.424478 -119.836187 230 13ft 0kts
03-Sep-18 15:27 34.424477 -119.836189 230 13ft 0kts
03-Sep-18 15:28 34.424475 -119.836192 230 13ft 0kts
03-Sep-18 15:29 34.424474 -119.836194 230 13ft 0kts
03-Sep-18 15:30 34.424362 -119.836531 248 13ft 7kts
03-Sep-18 15:31 34.425563 -119.837803 344 13ft 16kts
03-Sep-18 15:32 34.426933 -119.835253 56 13ft 7kts
03-Sep-18 15:33 34.427266 -119.835148 357 13ft 0kts
03-Sep-18 15:34 34.427268 -119.835148 357 13ft 0kts
03-Sep-18 15:35 34.427271 -119.835148 357 13ft 0kts
03-Sep-18 15:36 34.427273 -119.835148 357 13ft 0kts
03-Sep-18 15:37 34.427377 -119.835152 358 13ft 3kts
03-Sep-18 15:38 34.427678 -119.845688 267 13ft 123kts
03-Sep-18 15:39 34.408216 -119.890667 172 2189ft 213kts
03-Sep-18 15:40 34.392027 -119.827448 79 4402ft 236kts
03-Sep-18 15:41 34.400534 -119.746010 98 6629ft 252kts
03-Sep-18 15:42 34.369755 -119.666724 118 9173ft 271kts
03-Sep-18 15:43 34.334174 -119.584095 113 11871ft 285kts
03-Sep-18 15:44 34.311110 -119.491010 92 14309ft 306kts
03-Sep-18 15:45 34.317381 -119.380559 78 16557ft 350kts
03-Sep-18 15:46 34.330732 -119.258006 82 18790ft 382kts
03-Sep-18 15:47 34.338268 -119.126594 81 21094ft 398kts
03-Sep-18 15:48 34.349351 -118.991586 80 22873ft 402kts
03-Sep-18 15:49 34.365541 -118.860893 72 22942ft 391kts
03-Sep-18 15:50 34.401466 -118.735890 60 24942ft 400kts
03-Sep-18 15:51 34.448210 -118.610018 65 26788ft 420kts
03-Sep-18 15:52 34.492162 -118.477096 61 28588ft 431kts
03-Sep-18 15:53 34.539808 -118.340250 63 30214ft 448kts
03-Sep-18 15:54 34.584878 -118.198444 62 31953ft 452kts
03-Sep-18 15:55 34.628652 -118.053490 67 32918ft 467kts
03-Sep-18 15:56 34.650199 -117.901183 75 32911ft 447kts
03-Sep-18 15:57 34.666925 -117.754305 75 32904ft 432kts
03-Sep-18 15:58 34.683782 -117.611361 75 32908ft 422kts
03-Sep-18 15:59 34.700154 -117.470067 75 32920ft 425kts
03-Sep-18 16:00 34.716738 -117.326720 75 32922ft 431kts
03-Sep-18 16:01 34.733759 -117.180689 76 32938ft 441kts
03-Sep-18 16:01 34.748185 -117.056688 76 32934ft 448kts
03-Sep-18 16:03 34.767846 -116.879756 78 32900ft 456kts
03-Sep-18 16:04 34.777457 -116.725071 81 32880ft 461kts
03-Sep-18 16:04 34.780268 -116.595091 70 32901ft 455kts
03-Sep-18 16:05 34.800849 -116.442381 84 32929ft 464kts
03-Sep-18 16:06 34.795087 -116.284612 90 32419ft 466kts
03-Sep-18 16:08 34.794056 -116.101592 87 29793ft 466kts
03-Sep-18 16:08 34.789903 -115.970119 88 27895ft 462kts
03-Sep-18 16:09 34.788467 -115.820039 87 25572ft 431kts
03-Sep-18 16:10 34.786464 -115.677249 88 23914ft 411kts
03-Sep-18 16:11 34.783873 -115.541060 88 23885ft 396kts
03-Sep-18 16:12 34.781966 -115.405540 88 22719ft 402kts
03-Sep-18 16:13 34.782577 -115.273262 84 20523ft 382kts
03-Sep-18 16:14 34.790049 -115.146276 88 18246ft 372kts
03-Sep-18 16:15 34.783316 -115.022443 91 15811ft 357kts
03-Sep-18 16:16 34.832658 -114.924299 43 13093ft 349kts
03-Sep-18 16:17 34.904321 -114.848295 41 11037ft 318kts
03-Sep-18 16:18 34.966851 -114.784113 41 11020ft 290kts
03-Sep-18 16:19 35.028879 -114.720338 41 9900ft 280kts
03-Sep-18 16:20 35.086248 -114.660270 41 7080ft 264kts
03-Sep-18 16:21 35.141955 -114.605464 16 4084ft 253kts
03-Sep-18 16:22 35.207323 -114.610694 358 2088ft 176kts
03-Sep-18 16:23 35.221441 -114.575588 143 1689ft 147kts
03-Sep-18 16:24 35.187143 -114.561970 180 1113ft 124kts
03-Sep-18 16:25 35.158115 -114.559597 176 698ft 29kts
03-Sep-18 16:26 35.153756 -114.558613 87 698ft 6kts
03-Sep-18 16:27 35.155703 -114.558220 356 698ft 3kts
03-Sep-18 16:28 35.160347 -114.558575 356 698ft 27kts
03-Sep-18 16:29 35.162794 -114.557206 357 698ft 13kts
03-Sep-18 16:30 35.163012 -114.556554 86 698ft 0kts
03-Sep-18 16:31 35.163012 -114.556554 86 698ft 0kts
03-Sep-18 16:32 35.163012 -114.556554 86 698ft 0kts
03-Sep-18 16:33 35.163012 -114.556554 86 698ft 0kts
03-Sep-18 16:34 35.163012 -114.556554 86 698ft 0kts
03-Sep-18 16:35 35.163012 -114.556554 86 698ft 0kts
03-Sep-18 16:36 35.163012 -114.556554 86 698ft 0kts
03-Sep-18 16:37 35.163012 -114.556554 86 698ft 0kts
03-Sep-18 16:38 35.163012 -114.556554 86 698ft 0kts
03-Sep-18 16:39 35.163012 -114.556554 86 698ft 0kts

Navigation Log

Ident Type
Flight plan parsing failed, navigation log unavailable